Pagina principale
METAR-TAF:

METAR-TAF

Aeroporti :

Bata, Guinea Equatoriale

latitudine: 1-54-15N, longitudine: 9-48-15E, altezza: 4 m

Osservazione

Il bollettino è stato emesso 1 ora e 1 minuti fa, alle 12:00 UTC
Vento 5 kt da ovest/sud-ovest, variando fra sud/sud-ovest e ovest
Temperature 31°C
Umidità 79%
Pressione 1010 hPa
Visibilità 10 km o più
Nubi sparse ad un'altezza di 1000 ft

METAR: FGBT 281200Z 25005KT 210V270 9999 SCT010 31/27 Q1010

Ora: 14:01 (13:01 UTC)

Previsione

Il bollettino è stato emesso 2 ore e 1 minuti fa, alle 11:00 UTC
Previsione valida dal 28 alle 12 UTC al 29 alle 12 UTC
Vento 8 kt da ovest
Visibilità: 8000 m
Nubi sparse ad un'altezza di 1300 ft

TAF: FGBT 281100Z 2812/2912 26008KT 8000 SCT013

Osservazioni e previsioni meteorologiche di più di 4000 aeroporti (messaggi METAR e TAF).

Le stazioni disponibili sono rappresentate dai dischi gialli e rossi sulla carta.

Puntare il mouse per vedere il nome della stazione.

Clicca sopra per visualizzare le osservazioni e previsioni meteorologiche.

Per cambiare la mappa : fare clic sui pulsanti verdi con una croce nera per ingrandire, il pulsante verde con un trattino per diminuire, o sulla freccia verde per le mappe adiacenti.


METAR-TAF: